< < Back
Terminal Aerodrome Forecast


Current Version              Previous Versions:   1  2  3  4  5  6  7  8  9  

Terminal Aerodrome Forecast

679
FTUS42 KGSP 031143
TAFAVL
TAF
KAVL 031143Z 0312/0412 17005KT P6SM OVC018
     FM031400 18004KT 6SM -RADZ BR OVC012
      TEMPO 0316/0318 BKN008 OVC012
     FM031800 17004KT 5SM -RA BR OVC008
     FM040800 22004KT 3SM -RA BR OVC008 WS020/24040KT=

Latest METAR

432
SAUS70 KWBC 031200 RRI
MTRAVL
METAR KAVL 031154Z 16004KT 10SM OVC016 05/01 A3027 RMK AO2 SLP253 60001
70001 T00500011 10056 20044 53004


USA.gov is the U.S. government's official web portal to all federal, state and local government web resources and services.